sensor_id;sensor_type;location;lat;lon;timestamp;pressure;altitude;pressure_sealevel;temperature;humidity
62978;BME280;49073;42.352;23.808;2023-05-25T00:00:46;94675.22;;;13.49;88.42
62978;BME280;49073;42.352;23.808;2023-05-25T00:03:47;94672.41;;;13.35;89.20
62978;BME280;49073;42.352;23.808;2023-05-25T00:06:48;94672.78;;;13.33;89.57
62978;BME280;49073;42.352;23.808;2023-05-25T00:09:49;94673.19;;;13.39;87.94
62978;BME280;49073;42.352;23.808;2023-05-25T00:12:49;94662.88;;;13.37;86.34
62978;BME280;49073;42.352;23.808;2023-05-25T00:15:50;94666.16;;;13.16;87.37
62978;BME280;49073;42.352;23.808;2023-05-25T00:18:50;94661.56;;;13.17;86.79
62978;BME280;49073;42.352;23.808;2023-05-25T00:21:52;94662.63;;;13.05;87.29
62978;BME280;49073;42.352;23.808;2023-05-25T00:24:53;94665.25;;;12.98;87.71
62978;BME280;49073;42.352;23.808;2023-05-25T00:27:54;94669.75;;;12.93;87.63
62978;BME280;49073;42.352;23.808;2023-05-25T00:30:54;94665.53;;;12.89;87.88
62978;BME280;49073;42.352;23.808;2023-05-25T00:33:55;94671.72;;;12.97;87.66
62978;BME280;49073;42.352;23.808;2023-05-25T00:36:57;94675.22;;;13.04;86.35
62978;BME280;49073;42.352;23.808;2023-05-25T00:39:58;94676.28;;;12.96;86.28
62978;BME280;49073;42.352;23.808;2023-05-25T00:42:58;94682.72;;;12.91;86.56
62978;BME280;49073;42.352;23.808;2023-05-25T00:46:00;94676.13;;;12.78;87.58
62978;BME280;49073;42.352;23.808;2023-05-25T00:49:02;94678.84;;;12.85;87.54
62978;BME280;49073;42.352;23.808;2023-05-25T00:52:03;94668.22;;;12.89;87.22
62978;BME280;49073;42.352;23.808;2023-05-25T00:55:05;94671.16;;;12.80;86.89
62978;BME280;49073;42.352;23.808;2023-05-25T00:58:08;94664.69;;;12.81;85.79
62978;BME280;49073;42.352;23.808;2023-05-25T01:01:12;94666.50;;;12.70;85.91
62978;BME280;49073;42.352;23.808;2023-05-25T01:04:15;94672.03;;;12.50;87.63
62978;BME280;49073;42.352;23.808;2023-05-25T01:07:17;94665.50;;;12.47;88.36
62978;BME280;49073;42.352;23.808;2023-05-25T01:10:23;94669.75;;;12.52;87.92
62978;BME280;49073;42.352;23.808;2023-05-25T01:13:24;94666.28;;;12.48;87.92
62978;BME280;49073;42.352;23.808;2023-05-25T01:16:24;94670.91;;;12.55;86.67
62978;BME280;49073;42.352;23.808;2023-05-25T01:19:25;94671.56;;;12.44;87.38
62978;BME280;49073;42.352;23.808;2023-05-25T01:22:46;94672.22;;;12.34;87.67
62978;BME280;49073;42.352;23.808;2023-05-25T01:25:53;94671.03;;;12.01;89.04
62978;BME280;49073;42.352;23.808;2023-05-25T01:29:01;94668.06;;;12.06;90.18
62978;BME280;49073;42.352;23.808;2023-05-25T01:32:03;94675.53;;;12.24;88.30
62978;BME280;49073;42.352;23.808;2023-05-25T01:35:07;94674.66;;;12.16;87.99
62978;BME280;49073;42.352;23.808;2023-05-25T01:38:08;94677.19;;;12.05;88.28
62978;BME280;49073;42.352;23.808;2023-05-25T01:41:09;94670.91;;;12.20;87.00
62978;BME280;49073;42.352;23.808;2023-05-25T01:44:10;94675.41;;;12.13;85.67
62978;BME280;49073;42.352;23.808;2023-05-25T01:47:21;94670.72;;;12.06;86.53
62978;BME280;49073;42.352;23.808;2023-05-25T01:50:32;94670.59;;;11.99;87.94
62978;BME280;49073;42.352;23.808;2023-05-25T01:53:42;94674.06;;;11.99;88.72
62978;BME280;49073;42.352;23.808;2023-05-25T01:56:46;94677.97;;;12.05;89.05
62978;BME280;49073;42.352;23.808;2023-05-25T01:59:49;94670.13;;;12.16;86.27
62978;BME280;49073;42.352;23.808;2023-05-25T02:02:52;94671.09;;;12.04;86.22
62978;BME280;49073;42.352;23.808;2023-05-25T02:05:54;94674.28;;;11.87;87.80
62978;BME280;49073;42.352;23.808;2023-05-25T02:08:57;94679.22;;;11.85;88.34
62978;BME280;49073;42.352;23.808;2023-05-25T02:11:57;94676.16;;;11.83;88.62
62978;BME280;49073;42.352;23.808;2023-05-25T02:14:58;94669.38;;;11.92;88.30
62978;BME280;49073;42.352;23.808;2023-05-25T02:17:59;94682.84;;;12.00;87.44
62978;BME280;49073;42.352;23.808;2023-05-25T02:21:00;94673.66;;;11.97;87.15
62978;BME280;49073;42.352;23.808;2023-05-25T02:24:00;94680.06;;;11.92;87.10
62978;BME280;49073;42.352;23.808;2023-05-25T02:27:01;94679.81;;;11.74;87.88
62978;BME280;49073;42.352;23.808;2023-05-25T02:30:01;94679.16;;;11.81;87.95
62978;BME280;49073;42.352;23.808;2023-05-25T02:33:02;94695.59;;;11.83;86.80
62978;BME280;49073;42.352;23.808;2023-05-25T02:36:03;94689.75;;;11.74;86.47
62978;BME280;49073;42.352;23.808;2023-05-25T02:39:04;94681.69;;;11.43;88.57
62978;BME280;49073;42.352;23.808;2023-05-25T02:42:05;94687.13;;;11.50;89.60
62978;BME280;49073;42.352;23.808;2023-05-25T02:45:08;94682.66;;;11.58;89.83
62978;BME280;49073;42.352;23.808;2023-05-25T02:48:10;94697.56;;;11.59;89.82
62978;BME280;49073;42.352;23.808;2023-05-25T02:51:10;94701.06;;;11.67;90.19
62978;BME280;49073;42.352;23.808;2023-05-25T02:54:11;94704.22;;;11.73;88.75
62978;BME280;49073;42.352;23.808;2023-05-25T02:57:12;94697.69;;;11.70;87.10
62978;BME280;49073;42.352;23.808;2023-05-25T03:00:13;94705.59;;;11.63;87.79
62978;BME280;49073;42.352;23.808;2023-05-25T03:03:14;94705.88;;;11.54;89.06
62978;BME280;49073;42.352;23.808;2023-05-25T03:06:14;94706.28;;;11.56;89.46
62978;BME280;49073;42.352;23.808;2023-05-25T03:09:15;94718.22;;;11.66;89.36
62978;BME280;49073;42.352;23.808;2023-05-25T03:12:15;94713.88;;;11.54;89.88
62978;BME280;49073;42.352;23.808;2023-05-25T03:15:16;94709.81;;;11.64;88.29
62978;BME280;49073;42.352;23.808;2023-05-25T03:18:17;94718.31;;;11.46;89.69
62978;BME280;49073;42.352;23.808;2023-05-25T03:21:19;94717.72;;;11.57;90.09
62978;BME280;49073;42.352;23.808;2023-05-25T03:24:21;94719.56;;;11.53;91.01
62978;BME280;49073;42.352;23.808;2023-05-25T03:27:22;94722.41;;;11.63;90.70
62978;BME280;49073;42.352;23.808;2023-05-25T03:30:22;94720.63;;;11.48;91.33
62978;BME280;49073;42.352;23.808;2023-05-25T03:33:25;94727.63;;;11.56;91.84
62978;BME280;49073;42.352;23.808;2023-05-25T03:36:26;94726.75;;;11.75;90.96
62978;BME280;49073;42.352;23.808;2023-05-25T03:39:26;94724.19;;;11.83;90.47
62978;BME280;49073;42.352;23.808;2023-05-25T03:42:28;94718.03;;;11.78;90.34
62978;BME280;49073;42.352;23.808;2023-05-25T03:45:28;94729.13;;;11.81;90.73
62978;BME280;49073;42.352;23.808;2023-05-25T03:48:29;94728.91;;;11.93;90.39
62978;BME280;49073;42.352;23.808;2023-05-25T03:51:29;94727.53;;;12.03;90.71
62978;BME280;49073;42.352;23.808;2023-05-25T03:54:31;94729.13;;;12.07;90.72
62978;BME280;49073;42.352;23.808;2023-05-25T03:57:31;94741.44;;;12.12;91.34
62978;BME280;49073;42.352;23.808;2023-05-25T04:00:32;94736.13;;;12.16;92.12
62978;BME280;49073;42.352;23.808;2023-05-25T04:03:32;94733.31;;;12.35;92.38
62978;BME280;49073;42.352;23.808;2023-05-25T04:06:33;94738.13;;;12.53;91.93
62978;BME280;49073;42.352;23.808;2023-05-25T04:09:36;94737.72;;;12.51;92.88
62978;BME280;49073;42.352;23.808;2023-05-25T04:12:36;94732.53;;;12.35;95.45
62978;BME280;49073;42.352;23.808;2023-05-25T04:15:37;94741.13;;;12.48;95.86
62978;BME280;49073;42.352;23.808;2023-05-25T04:18:38;94733.50;;;12.50;96.47
62978;BME280;49073;42.352;23.808;2023-05-25T04:21:39;94743.88;;;12.55;97.37
62978;BME280;49073;42.352;23.808;2023-05-25T04:24:40;94742.81;;;12.63;97.92
62978;BME280;49073;42.352;23.808;2023-05-25T04:27:41;94745.88;;;12.65;97.83
62978;BME280;49073;42.352;23.808;2023-05-25T04:30:41;94748.22;;;12.71;97.53
62978;BME280;49073;42.352;23.808;2023-05-25T04:33:42;94749.91;;;12.83;97.10
62978;BME280;49073;42.352;23.808;2023-05-25T04:36:44;94761.44;;;12.90;97.22
62978;BME280;49073;42.352;23.808;2023-05-25T04:39:44;94765.78;;;13.02;96.88
62978;BME280;49073;42.352;23.808;2023-05-25T04:42:45;94757.13;;;13.20;97.04
62978;BME280;49073;42.352;23.808;2023-05-25T04:45:47;94762.88;;;13.18;96.93
62978;BME280;49073;42.352;23.808;2023-05-25T04:48:47;94765.69;;;13.33;95.26
62978;BME280;49073;42.352;23.808;2023-05-25T04:51:48;94758.59;;;13.48;92.51
62978;BME280;49073;42.352;23.808;2023-05-25T04:54:48;94745.94;;;13.48;92.01
62978;BME280;49073;42.352;23.808;2023-05-25T04:57:49;94751.81;;;13.61;91.92
62978;BME280;49073;42.352;23.808;2023-05-25T05:00:52;94754.53;;;13.65;93.78
62978;BME280;49073;42.352;23.808;2023-05-25T05:03:52;94755.69;;;13.67;94.25
62978;BME280;49073;42.352;23.808;2023-05-25T05:06:53;94751.78;;;13.58;96.39
62978;BME280;49073;42.352;23.808;2023-05-25T05:09:54;94755.25;;;13.62;98.52
62978;BME280;49073;42.352;23.808;2023-05-25T05:12:56;94760.97;;;13.60;100.00
62978;BME280;49073;42.352;23.808;2023-05-25T05:15:56;94765.94;;;13.58;100.00
62978;BME280;49073;42.352;23.808;2023-05-25T05:18:57;94759.50;;;13.66;100.00
62978;BME280;49073;42.352;23.808;2023-05-25T05:21:58;94753.84;;;13.79;100.00
62978;BME280;49073;42.352;23.808;2023-05-25T05:24:58;94755.84;;;13.93;99.68
62978;BME280;49073;42.352;23.808;2023-05-25T05:27:59;94760.94;;;14.09;97.91
62978;BME280;49073;42.352;23.808;2023-05-25T05:31:00;94774.47;;;14.31;97.37
62978;BME280;49073;42.352;23.808;2023-05-25T05:34:00;94768.78;;;14.43;95.84
62978;BME280;49073;42.352;23.808;2023-05-25T05:37:01;94768.47;;;14.55;96.00
62978;BME280;49073;42.352;23.808;2023-05-25T05:40:02;94751.63;;;14.59;94.97
62978;BME280;49073;42.352;23.808;2023-05-25T05:43:03;94756.19;;;14.47;93.92
62978;BME280;49073;42.352;23.808;2023-05-25T05:46:04;94760.84;;;14.65;91.59
62978;BME280;49073;42.352;23.808;2023-05-25T05:49:04;94760.13;;;14.72;89.55
62978;BME280;49073;42.352;23.808;2023-05-25T05:52:08;94760.91;;;14.79;89.66
62978;BME280;49073;42.352;23.808;2023-05-25T05:55:08;94759.06;;;14.94;90.94
62978;BME280;49073;42.352;23.808;2023-05-25T05:58:10;94762.94;;;15.04;92.02
62978;BME280;49073;42.352;23.808;2023-05-25T06:01:11;94761.78;;;15.16;94.15
62978;BME280;49073;42.352;23.808;2023-05-25T06:04:11;94764.88;;;15.22;96.37
62978;BME280;49073;42.352;23.808;2023-05-25T06:07:12;94760.66;;;15.32;97.32
62978;BME280;49073;42.352;23.808;2023-05-25T06:10:12;94763.75;;;15.34;97.43
62978;BME280;49073;42.352;23.808;2023-05-25T06:13:13;94766.06;;;15.46;91.85
62978;BME280;49073;42.352;23.808;2023-05-25T06:16:14;94757.63;;;15.66;91.54
62978;BME280;49073;42.352;23.808;2023-05-25T06:19:15;94746.53;;;15.93;88.32
62978;BME280;49073;42.352;23.808;2023-05-25T06:22:16;94755.31;;;16.08;91.42
62978;BME280;49073;42.352;23.808;2023-05-25T06:25:16;94754.91;;;16.24;93.74
62978;BME280;49073;42.352;23.808;2023-05-25T06:28:17;94758.72;;;16.41;91.33
62978;BME280;49073;42.352;23.808;2023-05-25T06:31:18;94761.38;;;16.52;91.59
62978;BME280;49073;42.352;23.808;2023-05-25T06:34:18;94762.84;;;16.67;90.69
62978;BME280;49073;42.352;23.808;2023-05-25T06:37:19;94757.44;;;16.75;87.57
62978;BME280;49073;42.352;23.808;2023-05-25T06:40:19;94750.81;;;16.90;87.10
62978;BME280;49073;42.352;23.808;2023-05-25T06:43:20;94747.69;;;17.02;86.56
62978;BME280;49073;42.352;23.808;2023-05-25T06:46:20;94748.75;;;17.23;85.64
62978;BME280;49073;42.352;23.808;2023-05-25T06:49:21;94750.94;;;17.43;83.52
62978;BME280;49073;42.352;23.808;2023-05-25T06:52:22;94753.13;;;17.59;82.20
62978;BME280;49073;42.352;23.808;2023-05-25T06:55:22;94757.59;;;17.77;81.16
62978;BME280;49073;42.352;23.808;2023-05-25T06:58:22;94753.19;;;18.01;82.37
62978;BME280;49073;42.352;23.808;2023-05-25T07:01:23;94750.88;;;17.99;79.19
62978;BME280;49073;42.352;23.808;2023-05-25T07:04:24;94748.53;;;18.05;77.95
62978;BME280;49073;42.352;23.808;2023-05-25T07:07:24;94744.66;;;18.10;75.61
62978;BME280;49073;42.352;23.808;2023-05-25T07:10:24;94751.84;;;18.20;69.82
62978;BME280;49073;42.352;23.808;2023-05-25T07:13:25;94746.28;;;18.38;68.42
62978;BME280;49073;42.352;23.808;2023-05-25T07:16:26;94746.75;;;18.64;65.71
62978;BME280;49073;42.352;23.808;2023-05-25T07:19:26;94746.44;;;18.89;72.47
62978;BME280;49073;42.352;23.808;2023-05-25T07:22:27;94751.50;;;18.87;67.16
62978;BME280;49073;42.352;23.808;2023-05-25T07:25:27;94744.59;;;18.83;69.47
62978;BME280;49073;42.352;23.808;2023-05-25T07:28:28;94747.94;;;18.94;69.66
62978;BME280;49073;42.352;23.808;2023-05-25T07:31:28;94749.69;;;19.08;69.88
62978;BME280;49073;42.352;23.808;2023-05-25T07:34:29;94749.22;;;19.17;69.81
62978;BME280;49073;42.352;23.808;2023-05-25T07:37:29;94750.84;;;19.38;68.54
62978;BME280;49073;42.352;23.808;2023-05-25T07:40:30;94755.84;;;19.91;64.84
62978;BME280;49073;42.352;23.808;2023-05-25T07:43:31;94752.94;;;20.02;63.86
62978;BME280;49073;42.352;23.808;2023-05-25T07:46:31;94754.25;;;20.17;63.70
62978;BME280;49073;42.352;23.808;2023-05-25T07:49:32;94755.34;;;20.20;61.79
62978;BME280;49073;42.352;23.808;2023-05-25T07:52:33;94748.22;;;20.30;62.34
62978;BME280;49073;42.352;23.808;2023-05-25T07:55:34;94746.38;;;20.47;62.41
62978;BME280;49073;42.352;23.808;2023-05-25T07:58:34;94733.22;;;20.45;61.11
62978;BME280;49073;42.352;23.808;2023-05-25T08:01:35;94752.88;;;20.70;63.31
62978;BME280;49073;42.352;23.808;2023-05-25T08:04:35;94744.25;;;20.78;62.24
62978;BME280;49073;42.352;23.808;2023-05-25T08:07:36;94744.25;;;20.78;62.12
62978;BME280;49073;42.352;23.808;2023-05-25T08:10:37;94744.63;;;20.77;62.07
62978;BME280;49073;42.352;23.808;2023-05-25T08:13:39;94747.25;;;20.60;61.72
62978;BME280;49073;42.352;23.808;2023-05-25T08:16:40;94747.47;;;20.49;64.23
62978;BME280;49073;42.352;23.808;2023-05-25T08:19:40;94750.44;;;20.35;65.14
62978;BME280;49073;42.352;23.808;2023-05-25T08:22:41;94746.75;;;20.25;64.59
62978;BME280;49073;42.352;23.808;2023-05-25T08:25:42;94744.78;;;20.05;65.92
62978;BME280;49073;42.352;23.808;2023-05-25T08:28:43;94749.31;;;20.12;67.16
62978;BME280;49073;42.352;23.808;2023-05-25T08:31:43;94748.63;;;20.08;66.21
62978;BME280;49073;42.352;23.808;2023-05-25T08:34:48;94752.41;;;20.11;68.37
62978;BME280;49073;42.352;23.808;2023-05-25T08:37:49;94757.19;;;20.03;67.98
62978;BME280;49073;42.352;23.808;2023-05-25T08:41:06;94760.72;;;20.00;68.45
62978;BME280;49073;42.352;23.808;2023-05-25T08:44:06;94760.19;;;19.85;65.43
62978;BME280;49073;42.352;23.808;2023-05-25T08:47:10;94762.66;;;19.75;65.25
62978;BME280;49073;42.352;23.808;2023-05-25T08:50:11;94759.88;;;19.79;68.18
62978;BME280;49073;42.352;23.808;2023-05-25T08:53:13;94767.28;;;19.75;70.70
62978;BME280;49073;42.352;23.808;2023-05-25T08:56:18;94768.91;;;19.69;71.49
62978;BME280;49073;42.352;23.808;2023-05-25T09:05:35;94772.91;;;19.84;67.93
62978;BME280;49073;42.352;23.808;2023-05-25T09:08:36;94767.19;;;20.06;68.29
62978;BME280;49073;42.352;23.808;2023-05-25T09:11:39;94766.81;;;20.28;67.49
62978;BME280;49073;42.352;23.808;2023-05-25T09:14:41;94757.19;;;20.47;64.59
62978;BME280;49073;42.352;23.808;2023-05-25T09:17:44;94759.66;;;20.82;60.63
62978;BME280;49073;42.352;23.808;2023-05-25T09:20:45;94764.97;;;20.85;58.81
62978;BME280;49073;42.352;23.808;2023-05-25T09:23:47;94757.47;;;20.93;55.93
62978;BME280;49073;42.352;23.808;2023-05-25T09:26:48;94750.31;;;21.03;54.28
62978;BME280;49073;42.352;23.808;2023-05-25T09:29:50;94748.16;;;21.31;55.56
62978;BME280;49073;42.352;23.808;2023-05-25T09:32:51;94749.25;;;21.70;54.74
62978;BME280;49073;42.352;23.808;2023-05-25T09:35:52;94744.72;;;21.97;50.24
62978;BME280;49073;42.352;23.808;2023-05-25T09:38:53;94735.03;;;22.12;53.43
62978;BME280;49073;42.352;23.808;2023-05-25T09:41:55;94744.28;;;22.44;45.83
62978;BME280;49073;42.352;23.808;2023-05-25T09:44:59;94742.81;;;22.56;44.55
62978;BME280;49073;42.352;23.808;2023-05-25T09:48:01;94753.59;;;22.60;44.89
62978;BME280;49073;42.352;23.808;2023-05-25T09:51:01;94755.59;;;22.72;44.55
62978;BME280;49073;42.352;23.808;2023-05-25T09:54:03;94765.66;;;22.59;46.28
62978;BME280;49073;42.352;23.808;2023-05-25T09:57:04;94752.13;;;21.79;51.92
62978;BME280;49073;42.352;23.808;2023-05-25T10:00:06;94755.19;;;20.91;55.57
62978;BME280;49073;42.352;23.808;2023-05-25T10:03:07;94762.53;;;20.71;56.53
62978;BME280;49073;42.352;23.808;2023-05-25T10:06:08;94765.03;;;20.41;58.24
62978;BME280;49073;42.352;23.808;2023-05-25T10:09:10;94754.03;;;20.08;57.25
62978;BME280;49073;42.352;23.808;2023-05-25T10:12:16;94764.13;;;20.28;57.22
62978;BME280;49073;42.352;23.808;2023-05-25T10:15:20;94760.66;;;20.68;60.77
62978;BME280;49073;42.352;23.808;2023-05-25T10:18:25;94763.53;;;20.81;54.98
62978;BME280;49073;42.352;23.808;2023-05-25T10:21:29;94762.97;;;20.89;57.02
62978;BME280;49073;42.352;23.808;2023-05-25T10:24:35;94760.47;;;20.99;53.36
62978;BME280;49073;42.352;23.808;2023-05-25T10:27:43;94763.16;;;21.35;54.73
62978;BME280;49073;42.352;23.808;2023-05-25T10:30:46;94765.19;;;21.31;57.32
62978;BME280;49073;42.352;23.808;2023-05-25T10:33:52;94761.22;;;20.99;58.03
62978;BME280;49073;42.352;23.808;2023-05-25T10:36:54;94758.78;;;20.64;59.11
62978;BME280;49073;42.352;23.808;2023-05-25T10:39:56;94763.50;;;20.40;60.33
62978;BME280;49073;42.352;23.808;2023-05-25T10:42:57;94751.66;;;20.54;61.18
62978;BME280;49073;42.352;23.808;2023-05-25T10:45:58;94765.09;;;20.58;60.27
62978;BME280;49073;42.352;23.808;2023-05-25T10:48:59;94762.13;;;20.72;59.95
62978;BME280;49073;42.352;23.808;2023-05-25T10:52:01;94759.75;;;20.74;60.66
62978;BME280;49073;42.352;23.808;2023-05-25T10:55:03;94753.06;;;20.83;61.26
62978;BME280;49073;42.352;23.808;2023-05-25T10:58:12;94752.22;;;20.86;60.03
62978;BME280;49073;42.352;23.808;2023-05-25T11:01:14;94740.03;;;20.94;58.30
62978;BME280;49073;42.352;23.808;2023-05-25T11:04:15;94748.75;;;21.22;58.67
62978;BME280;49073;42.352;23.808;2023-05-25T11:07:16;94749.44;;;21.43;56.64
62978;BME280;49073;42.352;23.808;2023-05-25T11:13:48;94753.81;;;21.73;58.33
62978;BME280;49073;42.352;23.808;2023-05-25T11:17:12;94738.63;;;21.92;55.75
62978;BME280;49073;42.352;23.808;2023-05-25T11:20:21;94738.38;;;21.70;54.00
62978;BME280;49073;42.352;23.808;2023-05-25T11:23:23;94737.75;;;21.62;53.92
62978;BME280;49073;42.352;23.808;2023-05-25T11:26:33;94738.81;;;21.85;54.00
62978;BME280;49073;42.352;23.808;2023-05-25T11:29:34;94731.50;;;21.99;54.51
62978;BME280;49073;42.352;23.808;2023-05-25T11:32:36;94734.28;;;22.12;55.31
62978;BME280;49073;42.352;23.808;2023-05-25T11:35:45;94735.66;;;22.49;53.79
62978;BME280;49073;42.352;23.808;2023-05-25T11:38:48;94740.06;;;22.43;52.95
62978;BME280;49073;42.352;23.808;2023-05-25T11:41:53;94736.91;;;22.74;52.33
62978;BME280;49073;42.352;23.808;2023-05-25T11:44:55;94730.88;;;22.37;51.58
62978;BME280;49073;42.352;23.808;2023-05-25T11:47:56;94732.91;;;22.20;52.51
62978;BME280;49073;42.352;23.808;2023-05-25T11:51:06;94730.69;;;21.85;51.22
62978;BME280;49073;42.352;23.808;2023-05-25T11:54:06;94730.47;;;21.59;55.21
62978;BME280;49073;42.352;23.808;2023-05-25T11:57:17;94724.09;;;21.49;55.01
62978;BME280;49073;42.352;23.808;2023-05-25T12:00:24;94727.44;;;21.41;53.61
62978;BME280;49073;42.352;23.808;2023-05-25T12:03:29;94723.94;;;21.40;54.46
62978;BME280;49073;42.352;23.808;2023-05-25T12:06:32;94714.03;;;21.33;54.57
62978;BME280;49073;42.352;23.808;2023-05-25T12:09:39;94713.78;;;21.44;54.99
62978;BME280;49073;42.352;23.808;2023-05-25T12:12:50;94706.25;;;21.52;52.88
62978;BME280;49073;42.352;23.808;2023-05-25T12:15:54;94703.97;;;21.67;51.97
62978;BME280;49073;42.352;23.808;2023-05-25T12:18:56;94696.19;;;21.69;51.08
62978;BME280;49073;42.352;23.808;2023-05-25T12:21:58;94693.97;;;21.80;50.88
62978;BME280;49073;42.352;23.808;2023-05-25T12:24:59;94696.56;;;22.01;51.89
62978;BME280;49073;42.352;23.808;2023-05-25T12:28:13;94692.94;;;22.50;47.40
62978;BME280;49073;42.352;23.808;2023-05-25T12:31:36;94691.28;;;22.95;43.32
62978;BME280;49073;42.352;23.808;2023-05-25T12:34:38;94692.22;;;22.75;44.11
62978;BME280;49073;42.352;23.808;2023-05-25T12:37:38;94691.75;;;22.51;46.22
62978;BME280;49073;42.352;23.808;2023-05-25T12:40:40;94678.16;;;22.21;45.95
62978;BME280;49073;42.352;23.808;2023-05-25T12:43:41;94682.84;;;22.21;47.63
62978;BME280;49073;42.352;23.808;2023-05-25T12:46:43;94676.38;;;22.31;45.50
62978;BME280;49073;42.352;23.808;2023-05-25T12:49:45;94673.19;;;22.49;47.88
62978;BME280;49073;42.352;23.808;2023-05-25T12:52:46;94677.53;;;22.60;44.97
62978;BME280;49073;42.352;23.808;2023-05-25T12:55:47;94676.94;;;22.94;44.91
62978;BME280;49073;42.352;23.808;2023-05-25T12:58:48;94666.63;;;23.28;44.14
62978;BME280;49073;42.352;23.808;2023-05-25T13:01:48;94659.50;;;23.57;41.16
62978;BME280;49073;42.352;23.808;2023-05-25T13:04:49;94662.16;;;23.82;42.29
62978;BME280;49073;42.352;23.808;2023-05-25T13:07:50;94666.59;;;24.02;46.04
62978;BME280;49073;42.352;23.808;2023-05-25T13:10:52;94653.00;;;23.89;44.72
62978;BME280;49073;42.352;23.808;2023-05-25T13:13:52;94657.31;;;23.64;44.29
62978;BME280;49073;42.352;23.808;2023-05-25T13:16:53;94651.81;;;23.42;48.84
62978;BME280;49073;42.352;23.808;2023-05-25T13:19:54;94658.13;;;23.39;46.08
62978;BME280;49073;42.352;23.808;2023-05-25T13:22:55;94662.47;;;22.85;46.78
62978;BME280;49073;42.352;23.808;2023-05-25T13:25:55;94657.66;;;22.50;47.69
62978;BME280;49073;42.352;23.808;2023-05-25T13:28:56;94656.34;;;22.55;47.52
62978;BME280;49073;42.352;23.808;2023-05-25T13:31:56;94658.34;;;22.37;48.55
62978;BME280;49073;42.352;23.808;2023-05-25T13:34:58;94655.78;;;22.47;48.36
62978;BME280;49073;42.352;23.808;2023-05-25T13:37:59;94663.84;;;22.63;48.98
62978;BME280;49073;42.352;23.808;2023-05-25T13:41:03;94663.00;;;23.44;47.59
62978;BME280;49073;42.352;23.808;2023-05-25T13:44:04;94662.19;;;23.70;44.50
62978;BME280;49073;42.352;23.808;2023-05-25T13:47:04;94664.09;;;22.95;45.32
62978;BME280;49073;42.352;23.808;2023-05-25T13:50:05;94666.38;;;22.71;47.00
62978;BME280;49073;42.352;23.808;2023-05-25T13:53:06;94683.78;;;22.44;48.77
62978;BME280;49073;42.352;23.808;2023-05-25T13:56:07;94684.38;;;21.76;52.85
62978;BME280;49073;42.352;23.808;2023-05-25T13:59:07;94685.81;;;21.47;52.73
62978;BME280;49073;42.352;23.808;2023-05-25T14:02:08;94691.50;;;21.36;54.38
62978;BME280;49073;42.352;23.808;2023-05-25T14:05:08;94677.59;;;21.18;54.68
62978;BME280;49073;42.352;23.808;2023-05-25T14:08:09;94682.59;;;21.19;56.35
62978;BME280;49073;42.352;23.808;2023-05-25T14:11:11;94676.72;;;20.88;56.23
62978;BME280;49073;42.352;23.808;2023-05-25T14:14:12;94690.22;;;20.51;57.57
62978;BME280;49073;42.352;23.808;2023-05-25T14:17:12;94703.72;;;20.11;58.22
62978;BME280;49073;42.352;23.808;2023-05-25T14:20:13;94713.03;;;19.86;59.14
62978;BME280;49073;42.352;23.808;2023-05-25T14:23:19;94714.69;;;19.80;60.05
62978;BME280;49073;42.352;23.808;2023-05-25T14:26:20;94714.44;;;19.46;61.56
62978;BME280;49073;42.352;23.808;2023-05-25T14:29:22;94710.63;;;19.16;64.99
62978;BME280;49073;42.352;23.808;2023-05-25T14:32:22;94721.16;;;19.07;68.35
62978;BME280;49073;42.352;23.808;2023-05-25T14:35:23;94724.31;;;19.02;68.28
62978;BME280;49073;42.352;23.808;2023-05-25T14:38:23;94731.84;;;18.87;69.34
62978;BME280;49073;42.352;23.808;2023-05-25T14:41:24;94732.56;;;18.91;69.38
62978;BME280;49073;42.352;23.808;2023-05-25T14:44:25;94737.25;;;18.87;69.29
62978;BME280;49073;42.352;23.808;2023-05-25T14:47:26;94740.53;;;18.71;72.44
62978;BME280;49073;42.352;23.808;2023-05-25T14:50:26;94736.06;;;18.18;73.64
62978;BME280;49073;42.352;23.808;2023-05-25T14:53:27;94735.25;;;17.80;74.54
62978;BME280;49073;42.352;23.808;2023-05-25T14:56:27;94729.25;;;18.07;72.72
62978;BME280;49073;42.352;23.808;2023-05-25T14:59:28;94718.97;;;18.32;75.98
62978;BME280;49073;42.352;23.808;2023-05-25T15:02:29;94715.06;;;17.99;74.19
62978;BME280;49073;42.352;23.808;2023-05-25T15:05:29;94719.97;;;18.11;74.58
62978;BME280;49073;42.352;23.808;2023-05-25T15:08:31;94719.41;;;18.27;72.48
62978;BME280;49073;42.352;23.808;2023-05-25T15:11:31;94711.66;;;18.33;73.30
62978;BME280;49073;42.352;23.808;2023-05-25T15:14:32;94710.13;;;18.63;74.21
62978;BME280;49073;42.352;23.808;2023-05-25T15:17:34;94711.75;;;18.57;74.16
62978;BME280;49073;42.352;23.808;2023-05-25T15:20:35;94708.81;;;18.44;73.80
62978;BME280;49073;42.352;23.808;2023-05-25T15:23:35;94707.47;;;18.28;77.38
62978;BME280;49073;42.352;23.808;2023-05-25T15:26:36;94720.03;;;18.42;77.77
62978;BME280;49073;42.352;23.808;2023-05-25T15:29:37;94744.34;;;18.39;79.75
62978;BME280;49073;42.352;23.808;2023-05-25T15:32:38;94740.03;;;18.45;77.65
62978;BME280;49073;42.352;23.808;2023-05-25T15:35:39;94750.19;;;18.34;80.99
62978;BME280;49073;42.352;23.808;2023-05-25T15:38:39;94751.06;;;18.23;80.03
62978;BME280;49073;42.352;23.808;2023-05-25T15:41:42;94759.81;;;18.35;79.32
62978;BME280;49073;42.352;23.808;2023-05-25T15:44:42;94736.94;;;18.46;77.54
62978;BME280;49073;42.352;23.808;2023-05-25T15:47:42;94732.22;;;18.54;77.63
62978;BME280;49073;42.352;23.808;2023-05-25T15:50:43;94729.34;;;18.69;76.77
62978;BME280;49073;42.352;23.808;2023-05-25T15:53:44;94731.97;;;18.76;77.30
62978;BME280;49073;42.352;23.808;2023-05-25T15:56:45;94728.03;;;18.81;78.03
62978;BME280;49073;42.352;23.808;2023-05-25T15:59:45;94733.72;;;18.90;77.57